sensor_id;sensor_type;location;lat;lon;timestamp;P1;durP1;ratioP1;P2;durP2;ratioP2
2562;SDS011;1291;51.420;6.970;2022-10-16T00:01:59;4.18;;;2.20;;
2562;SDS011;1291;51.420;6.970;2022-10-16T00:04:25;5.07;;;2.42;;
2562;SDS011;1291;51.420;6.970;2022-10-16T00:06:50;4.18;;;2.30;;
2562;SDS011;1291;51.420;6.970;2022-10-16T00:17:01;7.60;;;2.65;;
2562;SDS011;1291;51.420;6.970;2022-10-16T00:22:02;3.30;;;2.28;;
2562;SDS011;1291;51.420;6.970;2022-10-16T00:24:27;3.63;;;2.10;;
2562;SDS011;1291;51.420;6.970;2022-10-16T00:26:53;2.58;;;1.90;;
2562;SDS011;1291;51.420;6.970;2022-10-16T00:29:18;4.65;;;1.83;;
2562;SDS011;1291;51.420;6.970;2022-10-16T00:31:47;9.10;;;2.22;;
2562;SDS011;1291;51.420;6.970;2022-10-16T00:47:39;3.40;;;1.90;;
2562;SDS011;1291;51.420;6.970;2022-10-16T00:52:43;2.55;;;1.90;;
2562;SDS011;1291;51.420;6.970;2022-10-16T01:26:36;4.18;;;1.65;;
2562;SDS011;1291;51.420;6.970;2022-10-16T01:44:40;2.30;;;1.95;;
2562;SDS011;1291;51.420;6.970;2022-10-16T01:47:08;1.95;;;1.50;;
2562;SDS011;1291;51.420;6.970;2022-10-16T02:07:40;2.10;;;1.48;;
2562;SDS011;1291;51.420;6.970;2022-10-16T02:10:07;7.80;;;2.65;;
2562;SDS011;1291;51.420;6.970;2022-10-16T02:28:17;2.60;;;1.55;;
2562;SDS011;1291;51.420;6.970;2022-10-16T02:31:01;1.73;;;1.63;;
2562;SDS011;1291;51.420;6.970;2022-10-16T02:33:30;1.70;;;1.60;;
2562;SDS011;1291;51.420;6.970;2022-10-16T02:35:58;1.92;;;1.73;;
2562;SDS011;1291;51.420;6.970;2022-10-16T02:38:24;3.63;;;2.17;;
2562;SDS011;1291;51.420;6.970;2022-10-16T02:40:50;2.22;;;1.60;;
2562;SDS011;1291;51.420;6.970;2022-10-16T02:43:17;5.78;;;1.75;;
2562;SDS011;1291;51.420;6.970;2022-10-16T02:45:42;2.70;;;1.63;;
2562;SDS011;1291;51.420;6.970;2022-10-16T02:48:08;3.40;;;1.70;;
2562;SDS011;1291;51.420;6.970;2022-10-16T03:06:05;2.53;;;1.65;;
2562;SDS011;1291;51.420;6.970;2022-10-16T03:54:16;2.17;;;1.30;;
2562;SDS011;1291;51.420;6.970;2022-10-16T04:17:23;1.70;;;1.60;;
2562;SDS011;1291;51.420;6.970;2022-10-16T04:22:24;2.35;;;1.60;;
2562;SDS011;1291;51.420;6.970;2022-10-16T04:27:25;1.73;;;1.60;;
2562;SDS011;1291;51.420;6.970;2022-10-16T04:32:26;2.45;;;1.50;;
2562;SDS011;1291;51.420;6.970;2022-10-16T04:34:52;3.60;;;1.75;;
2562;SDS011;1291;51.420;6.970;2022-10-16T04:39:52;2.20;;;1.40;;
2562;SDS011;1291;51.420;6.970;2022-10-16T04:44:53;2.95;;;2.05;;
2562;SDS011;1291;51.420;6.970;2022-10-16T04:47:19;1.90;;;1.70;;
2562;SDS011;1291;51.420;6.970;2022-10-16T04:49:45;1.67;;;1.58;;
2562;SDS011;1291;51.420;6.970;2022-10-16T04:57:21;2.20;;;1.60;;
2562;SDS011;1291;51.420;6.970;2022-10-16T04:59:46;2.30;;;1.30;;
2562;SDS011;1291;51.420;6.970;2022-10-16T05:02:12;3.00;;;1.48;;
2562;SDS011;1291;51.420;6.970;2022-10-16T05:04:38;3.15;;;1.60;;
2562;SDS011;1291;51.420;6.970;2022-10-16T05:09:39;6.55;;;1.88;;
2562;SDS011;1291;51.420;6.970;2022-10-16T05:12:04;6.63;;;1.50;;
2562;SDS011;1291;51.420;6.970;2022-10-16T05:17:05;2.47;;;2.05;;
2562;SDS011;1291;51.420;6.970;2022-10-16T05:19:31;1.80;;;1.50;;
2562;SDS011;1291;51.420;6.970;2022-10-16T05:29:42;1.60;;;1.38;;
2562;SDS011;1291;51.420;6.970;2022-10-16T05:32:08;2.38;;;1.63;;
2562;SDS011;1291;51.420;6.970;2022-10-16T05:37:09;2.70;;;1.80;;
2562;SDS011;1291;51.420;6.970;2022-10-16T05:39:36;2.15;;;1.60;;
2562;SDS011;1291;51.420;6.970;2022-10-16T05:47:13;1.60;;;1.50;;
2562;SDS011;1291;51.420;6.970;2022-10-16T05:49:39;2.45;;;1.40;;
2562;SDS011;1291;51.420;6.970;2022-10-16T05:52:04;2.63;;;1.27;;
2562;SDS011;1291;51.420;6.970;2022-10-16T06:04:51;3.65;;;1.60;;
2562;SDS011;1291;51.420;6.970;2022-10-16T06:07:19;7.35;;;1.88;;
2562;SDS011;1291;51.420;6.970;2022-10-16T06:20:05;2.65;;;1.88;;
2562;SDS011;1291;51.420;6.970;2022-10-16T06:22:31;5.20;;;1.60;;
2562;SDS011;1291;51.420;6.970;2022-10-16T06:27:32;1.58;;;1.48;;
2562;SDS011;1291;51.420;6.970;2022-10-16T06:40:19;4.35;;;1.70;;
2562;SDS011;1291;51.420;6.970;2022-10-16T06:42:45;3.22;;;1.70;;
2562;SDS011;1291;51.420;6.970;2022-10-16T06:50:21;2.33;;;1.50;;
2562;SDS011;1291;51.420;6.970;2022-10-16T07:18:38;2.15;;;1.63;;
2562;SDS011;1291;51.420;6.970;2022-10-16T07:21:06;2.45;;;1.83;;
2562;SDS011;1291;51.420;6.970;2022-10-16T07:23:32;2.03;;;1.67;;
2562;SDS011;1291;51.420;6.970;2022-10-16T07:25:58;1.70;;;1.60;;
2562;SDS011;1291;51.420;6.970;2022-10-16T07:28:23;2.28;;;1.80;;
2562;SDS011;1291;51.420;6.970;2022-10-16T07:30:49;2.53;;;2.33;;
2562;SDS011;1291;51.420;6.970;2022-10-16T07:33:14;1.52;;;1.42;;
2562;SDS011;1291;51.420;6.970;2022-10-16T07:35:49;3.58;;;1.40;;
2562;SDS011;1291;51.420;6.970;2022-10-16T07:38:16;1.55;;;1.45;;
2562;SDS011;1291;51.420;6.970;2022-10-16T07:40:42;2.17;;;1.40;;
2562;SDS011;1291;51.420;6.970;2022-10-16T07:43:07;6.25;;;1.80;;
2562;SDS011;1291;51.420;6.970;2022-10-16T07:45:33;2.75;;;1.60;;
2562;SDS011;1291;51.420;6.970;2022-10-16T07:47:58;1.70;;;1.38;;
2562;SDS011;1291;51.420;6.970;2022-10-16T07:50:23;4.05;;;1.70;;
2562;SDS011;1291;51.420;6.970;2022-10-16T07:52:49;2.55;;;1.58;;
2562;SDS011;1291;51.420;6.970;2022-10-16T07:55:14;2.25;;;1.70;;
2562;SDS011;1291;51.420;6.970;2022-10-16T07:57:39;3.78;;;1.50;;
2562;SDS011;1291;51.420;6.970;2022-10-16T08:00:05;2.88;;;1.40;;
2562;SDS011;1291;51.420;6.970;2022-10-16T08:02:31;3.55;;;1.60;;
2562;SDS011;1291;51.420;6.970;2022-10-16T08:04:57;1.63;;;1.52;;
2562;SDS011;1291;51.420;6.970;2022-10-16T08:07:22;2.58;;;1.60;;
2562;SDS011;1291;51.420;6.970;2022-10-16T08:09:51;2.13;;;1.58;;
2562;SDS011;1291;51.420;6.970;2022-10-16T08:12:17;4.65;;;1.73;;
2562;SDS011;1291;51.420;6.970;2022-10-16T08:14:42;3.00;;;1.65;;
2562;SDS011;1291;51.420;6.970;2022-10-16T08:17:08;3.13;;;1.42;;
2562;SDS011;1291;51.420;6.970;2022-10-16T08:19:33;2.78;;;1.67;;
2562;SDS011;1291;51.420;6.970;2022-10-16T08:21:59;2.58;;;1.60;;
2562;SDS011;1291;51.420;6.970;2022-10-16T08:24:25;1.65;;;1.30;;
2562;SDS011;1291;51.420;6.970;2022-10-16T08:26:53;2.22;;;1.70;;
2562;SDS011;1291;51.420;6.970;2022-10-16T08:29:19;3.70;;;1.10;;
2562;SDS011;1291;51.420;6.970;2022-10-16T08:31:44;1.67;;;1.23;;
2562;SDS011;1291;51.420;6.970;2022-10-16T08:34:10;4.18;;;1.60;;
2562;SDS011;1291;51.420;6.970;2022-10-16T08:36:35;3.63;;;1.38;;
2562;SDS011;1291;51.420;6.970;2022-10-16T08:39:01;3.60;;;1.30;;
2562;SDS011;1291;51.420;6.970;2022-10-16T08:44:31;2.25;;;1.08;;
2562;SDS011;1291;51.420;6.970;2022-10-16T08:47:11;1.35;;;1.13;;
2562;SDS011;1291;51.420;6.970;2022-10-16T08:49:55;2.67;;;1.63;;
2562;SDS011;1291;51.420;6.970;2022-10-16T08:52:23;2.90;;;1.48;;
2562;SDS011;1291;51.420;6.970;2022-10-16T08:54:55;2.70;;;1.17;;
2562;SDS011;1291;51.420;6.970;2022-10-16T08:57:21;3.55;;;1.40;;
2562;SDS011;1291;51.420;6.970;2022-10-16T08:59:49;1.77;;;1.13;;
2562;SDS011;1291;51.420;6.970;2022-10-16T09:02:26;2.58;;;1.67;;
2562;SDS011;1291;51.420;6.970;2022-10-16T09:07:54;3.20;;;1.25;;
2562;SDS011;1291;51.420;6.970;2022-10-16T09:13:14;1.30;;;1.20;;
2562;SDS011;1291;51.420;6.970;2022-10-16T09:16:04;3.35;;;1.20;;
2562;SDS011;1291;51.420;6.970;2022-10-16T09:18:43;3.58;;;1.05;;
2562;SDS011;1291;51.420;6.970;2022-10-16T09:21:31;2.13;;;1.10;;
2562;SDS011;1291;51.420;6.970;2022-10-16T09:24:07;3.63;;;1.30;;
2562;SDS011;1291;51.420;6.970;2022-10-16T09:26:46;2.60;;;1.30;;
2562;SDS011;1291;51.420;6.970;2022-10-16T09:29:12;3.85;;;1.05;;
2562;SDS011;1291;51.420;6.970;2022-10-16T09:31:39;1.85;;;1.00;;
2562;SDS011;1291;51.420;6.970;2022-10-16T09:34:13;1.00;;;0.90;;
2562;SDS011;1291;51.420;6.970;2022-10-16T09:36:52;2.25;;;1.45;;
2562;SDS011;1291;51.420;6.970;2022-10-16T09:39:18;1.38;;;0.88;;
2562;SDS011;1291;51.420;6.970;2022-10-16T09:41:44;4.70;;;1.33;;
2562;SDS011;1291;51.420;6.970;2022-10-16T09:44:18;3.08;;;1.10;;
2562;SDS011;1291;51.420;6.970;2022-10-16T09:46:48;2.83;;;1.27;;
2562;SDS011;1291;51.420;6.970;2022-10-16T09:49:21;3.50;;;1.10;;
2562;SDS011;1291;51.420;6.970;2022-10-16T09:51:48;7.65;;;1.40;;
2562;SDS011;1291;51.420;6.970;2022-10-16T09:54:14;3.60;;;0.80;;
2562;SDS011;1291;51.420;6.970;2022-10-16T09:56:42;1.55;;;0.80;;
2562;SDS011;1291;51.420;6.970;2022-10-16T09:59:14;2.72;;;1.08;;
2562;SDS011;1291;51.420;6.970;2022-10-16T10:01:43;3.15;;;1.08;;
2562;SDS011;1291;51.420;6.970;2022-10-16T10:04:11;5.13;;;1.80;;
2562;SDS011;1291;51.420;6.970;2022-10-16T10:06:40;1.38;;;1.17;;
2562;SDS011;1291;51.420;6.970;2022-10-16T10:12:23;3.45;;;1.20;;
2562;SDS011;1291;51.420;6.970;2022-10-16T10:14:50;0.98;;;0.90;;
2562;SDS011;1291;51.420;6.970;2022-10-16T10:17:19;7.40;;;1.50;;
2562;SDS011;1291;51.420;6.970;2022-10-16T10:19:48;2.13;;;1.20;;
2562;SDS011;1291;51.420;6.970;2022-10-16T10:24:45;3.33;;;1.02;;
2562;SDS011;1291;51.420;6.970;2022-10-16T10:44:14;2.03;;;1.08;;
2562;SDS011;1291;51.420;6.970;2022-10-16T10:46:51;1.15;;;0.90;;
2562;SDS011;1291;51.420;6.970;2022-10-16T10:49:41;4.45;;;0.77;;
2562;SDS011;1291;51.420;6.970;2022-10-16T10:55:09;1.13;;;0.68;;
2562;SDS011;1291;51.420;6.970;2022-10-16T10:57:43;1.48;;;1.10;;
2562;SDS011;1291;51.420;6.970;2022-10-16T11:00:27;0.68;;;0.55;;
2562;SDS011;1291;51.420;6.970;2022-10-16T11:08:32;2.70;;;1.00;;
2562;SDS011;1291;51.420;6.970;2022-10-16T11:11:11;2.45;;;0.60;;
2562;SDS011;1291;51.420;6.970;2022-10-16T11:13:44;2.38;;;0.70;;
2562;SDS011;1291;51.420;6.970;2022-10-16T11:18:59;1.02;;;0.70;;
2562;SDS011;1291;51.420;6.970;2022-10-16T11:21:30;5.05;;;0.98;;
2562;SDS011;1291;51.420;6.970;2022-10-16T11:24:06;3.80;;;0.90;;
2562;SDS011;1291;51.420;6.970;2022-10-16T11:26:39;0.88;;;0.68;;
2562;SDS011;1291;51.420;6.970;2022-10-16T11:29:13;1.33;;;0.80;;
2562;SDS011;1291;51.420;6.970;2022-10-16T11:31:54;3.72;;;0.88;;
2562;SDS011;1291;51.420;6.970;2022-10-16T11:39:47;5.03;;;1.08;;
2562;SDS011;1291;51.420;6.970;2022-10-16T11:42:22;1.45;;;0.60;;
2562;SDS011;1291;51.420;6.970;2022-10-16T11:56:32;1.73;;;0.90;;
2562;SDS011;1291;51.420;6.970;2022-10-16T12:01:37;2.45;;;0.80;;
2562;SDS011;1291;51.420;6.970;2022-10-16T12:06:57;2.67;;;0.82;;
2562;SDS011;1291;51.420;6.970;2022-10-16T12:09:30;3.17;;;0.75;;
2562;SDS011;1291;51.420;6.970;2022-10-16T12:11:57;1.48;;;0.82;;
2562;SDS011;1291;51.420;6.970;2022-10-16T12:17:03;1.25;;;0.95;;
2562;SDS011;1291;51.420;6.970;2022-10-16T12:23:16;4.43;;;1.35;;
2562;SDS011;1291;51.420;6.970;2022-10-16T12:25:54;2.08;;;0.90;;
2562;SDS011;1291;51.420;6.970;2022-10-16T12:28:22;2.60;;;1.02;;
2562;SDS011;1291;51.420;6.970;2022-10-16T12:30:53;1.35;;;0.80;;
2562;SDS011;1291;51.420;6.970;2022-10-16T12:33:29;3.30;;;0.90;;
2562;SDS011;1291;51.420;6.970;2022-10-16T12:36:02;2.90;;;0.90;;
2562;SDS011;1291;51.420;6.970;2022-10-16T12:41:10;2.95;;;1.05;;
2562;SDS011;1291;51.420;6.970;2022-10-16T12:43:38;3.63;;;0.77;;
2562;SDS011;1291;51.420;6.970;2022-10-16T12:48:36;6.07;;;0.75;;
2562;SDS011;1291;51.420;6.970;2022-10-16T12:51:19;3.92;;;0.82;;
2562;SDS011;1291;51.420;6.970;2022-10-16T12:53:46;5.22;;;1.35;;
2562;SDS011;1291;51.420;6.970;2022-10-16T13:07:44;2.38;;;0.75;;
2562;SDS011;1291;51.420;6.970;2022-10-16T13:13:05;1.77;;;0.90;;
2562;SDS011;1291;51.420;6.970;2022-10-16T13:15:51;3.80;;;0.80;;
2562;SDS011;1291;51.420;6.970;2022-10-16T13:27:03;3.30;;;0.80;;
2562;SDS011;1291;51.420;6.970;2022-10-16T13:29:39;1.23;;;0.60;;
2562;SDS011;1291;51.420;6.970;2022-10-16T13:32:07;1.55;;;0.60;;
2562;SDS011;1291;51.420;6.970;2022-10-16T13:34:44;3.40;;;0.80;;
2562;SDS011;1291;51.420;6.970;2022-10-16T13:37:18;2.10;;;0.82;;
2562;SDS011;1291;51.420;6.970;2022-10-16T13:39:44;3.30;;;1.05;;
2562;SDS011;1291;51.420;6.970;2022-10-16T13:42:16;1.98;;;0.73;;
2562;SDS011;1291;51.420;6.970;2022-10-16T13:44:47;2.67;;;0.90;;
2562;SDS011;1291;51.420;6.970;2022-10-16T13:47:28;3.03;;;0.85;;
2562;SDS011;1291;51.420;6.970;2022-10-16T13:50:01;4.45;;;0.93;;
2562;SDS011;1291;51.420;6.970;2022-10-16T13:52:30;2.72;;;0.90;;
2562;SDS011;1291;51.420;6.970;2022-10-16T13:54:56;1.55;;;0.60;;
2562;SDS011;1291;51.420;6.970;2022-10-16T13:57:22;4.57;;;1.10;;
2562;SDS011;1291;51.420;6.970;2022-10-16T13:59:49;14.20;;;2.13;;
2562;SDS011;1291;51.420;6.970;2022-10-16T14:02:34;7.07;;;1.20;;
2562;SDS011;1291;51.420;6.970;2022-10-16T14:05:04;17.13;;;1.90;;
2562;SDS011;1291;51.420;6.970;2022-10-16T14:07:34;22.70;;;2.63;;
2562;SDS011;1291;51.420;6.970;2022-10-16T14:10:04;7.22;;;1.33;;
2562;SDS011;1291;51.420;6.970;2022-10-16T14:12:32;1.33;;;0.80;;
2562;SDS011;1291;51.420;6.970;2022-10-16T14:14:59;2.60;;;1.00;;
2562;SDS011;1291;51.420;6.970;2022-10-16T14:17:26;1.92;;;0.88;;
2562;SDS011;1291;51.420;6.970;2022-10-16T14:19:55;4.10;;;0.63;;
2562;SDS011;1291;51.420;6.970;2022-10-16T14:22:26;3.25;;;0.93;;
2562;SDS011;1291;51.420;6.970;2022-10-16T14:25:02;1.38;;;0.60;;
2562;SDS011;1291;51.420;6.970;2022-10-16T14:30:58;2.60;;;0.65;;
2562;SDS011;1291;51.420;6.970;2022-10-16T14:36:11;1.52;;;0.80;;
2562;SDS011;1291;51.420;6.970;2022-10-16T14:38:39;3.80;;;1.63;;
2562;SDS011;1291;51.420;6.970;2022-10-16T14:41:07;2.75;;;1.08;;
2562;SDS011;1291;51.420;6.970;2022-10-16T14:43:36;7.90;;;1.40;;
2562;SDS011;1291;51.420;6.970;2022-10-16T14:46:06;5.97;;;1.02;;
2562;SDS011;1291;51.420;6.970;2022-10-16T14:48:42;2.45;;;0.90;;
2562;SDS011;1291;51.420;6.970;2022-10-16T14:51:14;2.60;;;0.88;;
2562;SDS011;1291;51.420;6.970;2022-10-16T14:53:43;0.75;;;0.65;;
2562;SDS011;1291;51.420;6.970;2022-10-16T14:56:17;1.00;;;0.60;;
2562;SDS011;1291;51.420;6.970;2022-10-16T14:58:44;5.45;;;1.20;;
2562;SDS011;1291;51.420;6.970;2022-10-16T15:01:10;1.92;;;0.95;;
2562;SDS011;1291;51.420;6.970;2022-10-16T15:03:36;2.55;;;0.80;;
2562;SDS011;1291;51.420;6.970;2022-10-16T15:06:02;2.85;;;1.00;;
2562;SDS011;1291;51.420;6.970;2022-10-16T15:08:28;1.58;;;0.73;;
2562;SDS011;1291;51.420;6.970;2022-10-16T15:10:53;1.83;;;0.93;;
2562;SDS011;1291;51.420;6.970;2022-10-16T15:13:19;1.65;;;0.82;;
2562;SDS011;1291;51.420;6.970;2022-10-16T15:15:45;2.17;;;0.88;;
2562;SDS011;1291;51.420;6.970;2022-10-16T15:18:12;0.95;;;0.90;;
2562;SDS011;1291;51.420;6.970;2022-10-16T15:20:39;1.38;;;0.90;;
2562;SDS011;1291;51.420;6.970;2022-10-16T15:23:06;3.90;;;0.85;;
2562;SDS011;1291;51.420;6.970;2022-10-16T15:25:39;2.85;;;1.10;;
2562;SDS011;1291;51.420;6.970;2022-10-16T15:28:09;3.05;;;0.82;;
2562;SDS011;1291;51.420;6.970;2022-10-16T15:30:36;1.00;;;0.63;;
2562;SDS011;1291;51.420;6.970;2022-10-16T15:33:02;4.65;;;1.52;;
2562;SDS011;1291;51.420;6.970;2022-10-16T15:35:29;2.40;;;1.60;;
2562;SDS011;1291;51.420;6.970;2022-10-16T15:37:56;4.72;;;1.95;;
2562;SDS011;1291;51.420;6.970;2022-10-16T15:40:22;2.30;;;1.48;;
2562;SDS011;1291;51.420;6.970;2022-10-16T15:42:48;1.75;;;1.17;;
2562;SDS011;1291;51.420;6.970;2022-10-16T15:45:14;4.20;;;1.42;;
2562;SDS011;1291;51.420;6.970;2022-10-16T15:47:44;1.42;;;1.00;;
2562;SDS011;1291;51.420;6.970;2022-10-16T15:50:13;2.65;;;1.08;;
2562;SDS011;1291;51.420;6.970;2022-10-16T15:52:39;1.67;;;1.20;;
2562;SDS011;1291;51.420;6.970;2022-10-16T15:55:09;3.25;;;1.50;;
2562;SDS011;1291;51.420;6.970;2022-10-16T15:57:36;1.50;;;1.20;;
2562;SDS011;1291;51.420;6.970;2022-10-16T16:00:05;2.80;;;1.27;;
2562;SDS011;1291;51.420;6.970;2022-10-16T16:02:31;5.70;;;1.45;;
2562;SDS011;1291;51.420;6.970;2022-10-16T16:04:57;2.75;;;1.25;;
2562;SDS011;1291;51.420;6.970;2022-10-16T16:07:22;3.05;;;1.38;;
2562;SDS011;1291;51.420;6.970;2022-10-16T16:09:48;3.00;;;1.15;;
2562;SDS011;1291;51.420;6.970;2022-10-16T16:12:13;3.35;;;0.98;;
2562;SDS011;1291;51.420;6.970;2022-10-16T16:14:39;4.18;;;0.85;;
2562;SDS011;1291;51.420;6.970;2022-10-16T16:17:04;3.17;;;1.08;;
2562;SDS011;1291;51.420;6.970;2022-10-16T16:19:29;2.75;;;1.08;;
2562;SDS011;1291;51.420;6.970;2022-10-16T16:21:56;3.42;;;1.30;;
2562;SDS011;1291;51.420;6.970;2022-10-16T16:24:22;4.68;;;1.67;;
2562;SDS011;1291;51.420;6.970;2022-10-16T16:26:47;2.10;;;1.23;;
2562;SDS011;1291;51.420;6.970;2022-10-16T16:29:13;2.65;;;1.20;;
2562;SDS011;1291;51.420;6.970;2022-10-16T16:31:40;1.98;;;1.00;;
2562;SDS011;1291;51.420;6.970;2022-10-16T16:34:06;2.60;;;1.58;;
2562;SDS011;1291;51.420;6.970;2022-10-16T16:36:32;2.97;;;1.15;;
2562;SDS011;1291;51.420;6.970;2022-10-16T16:38:58;3.67;;;1.42;;
2562;SDS011;1291;51.420;6.970;2022-10-16T16:41:24;3.15;;;1.40;;
2562;SDS011;1291;51.420;6.970;2022-10-16T16:43:52;2.33;;;1.50;;
2562;SDS011;1291;51.420;6.970;2022-10-16T16:46:19;4.45;;;1.67;;
2562;SDS011;1291;51.420;6.970;2022-10-16T16:48:45;3.67;;;1.58;;
2562;SDS011;1291;51.420;6.970;2022-10-16T16:51:14;2.67;;;1.40;;
2562;SDS011;1291;51.420;6.970;2022-10-16T16:53:45;2.47;;;1.60;;
2562;SDS011;1291;51.420;6.970;2022-10-16T16:56:12;4.63;;;1.67;;
2562;SDS011;1291;51.420;6.970;2022-10-16T16:58:38;1.83;;;1.35;;
2562;SDS011;1291;51.420;6.970;2022-10-16T17:01:09;2.70;;;1.50;;
2562;SDS011;1291;51.420;6.970;2022-10-16T17:03:35;5.47;;;1.55;;
2562;SDS011;1291;51.420;6.970;2022-10-16T17:06:07;4.28;;;1.58;;
2562;SDS011;1291;51.420;6.970;2022-10-16T17:08:34;1.75;;;1.60;;
2562;SDS011;1291;51.420;6.970;2022-10-16T17:11:00;2.35;;;1.55;;
2562;SDS011;1291;51.420;6.970;2022-10-16T17:13:30;2.33;;;1.55;;
2562;SDS011;1291;51.420;6.970;2022-10-16T17:15:59;4.85;;;1.80;;
2562;SDS011;1291;51.420;6.970;2022-10-16T17:18:25;3.50;;;1.73;;
2562;SDS011;1291;51.420;6.970;2022-10-16T17:20:51;5.47;;;2.22;;
2562;SDS011;1291;51.420;6.970;2022-10-16T17:23:17;2.55;;;2.00;;
2562;SDS011;1291;51.420;6.970;2022-10-16T17:25:43;3.00;;;2.00;;
2562;SDS011;1291;51.420;6.970;2022-10-16T17:28:09;2.88;;;1.95;;
2562;SDS011;1291;51.420;6.970;2022-10-16T17:30:36;3.47;;;2.13;;
2562;SDS011;1291;51.420;6.970;2022-10-16T17:33:03;2.70;;;1.67;;
2562;SDS011;1291;51.420;6.970;2022-10-16T17:35:29;3.63;;;1.75;;
2562;SDS011;1291;51.420;6.970;2022-10-16T17:38:04;3.53;;;1.95;;
2562;SDS011;1291;51.420;6.970;2022-10-16T17:40:30;6.72;;;1.85;;
2562;SDS011;1291;51.420;6.970;2022-10-16T17:42:55;2.55;;;1.73;;
2562;SDS011;1291;51.420;6.970;2022-10-16T17:45:21;2.85;;;2.00;;
2562;SDS011;1291;51.420;6.970;2022-10-16T17:47:46;2.28;;;2.08;;
2562;SDS011;1291;51.420;6.970;2022-10-16T17:50:12;3.88;;;1.80;;
2562;SDS011;1291;51.420;6.970;2022-10-16T17:52:37;2.72;;;1.90;;
2562;SDS011;1291;51.420;6.970;2022-10-16T17:55:03;3.05;;;1.83;;
2562;SDS011;1291;51.420;6.970;2022-10-16T17:57:28;3.13;;;2.05;;
2562;SDS011;1291;51.420;6.970;2022-10-16T17:59:54;1.90;;;1.70;;
2562;SDS011;1291;51.420;6.970;2022-10-16T18:02:20;8.73;;;1.80;;
2562;SDS011;1291;51.420;6.970;2022-10-16T18:04:49;3.35;;;1.80;;
2562;SDS011;1291;51.420;6.970;2022-10-16T18:07:17;2.55;;;1.80;;
2562;SDS011;1291;51.420;6.970;2022-10-16T18:09:43;4.82;;;2.00;;
2562;SDS011;1291;51.420;6.970;2022-10-16T18:12:08;2.08;;;1.80;;
2562;SDS011;1291;51.420;6.970;2022-10-16T18:14:34;3.38;;;1.70;;
2562;SDS011;1291;51.420;6.970;2022-10-16T18:16:59;5.72;;;2.38;;
2562;SDS011;1291;51.420;6.970;2022-10-16T18:19:25;6.53;;;1.80;;
2562;SDS011;1291;51.420;6.970;2022-10-16T18:21:52;2.20;;;1.83;;
2562;SDS011;1291;51.420;6.970;2022-10-16T18:24:20;2.97;;;1.70;;
2562;SDS011;1291;51.420;6.970;2022-10-16T18:26:49;4.10;;;1.50;;
2562;SDS011;1291;51.420;6.970;2022-10-16T18:29:16;2.97;;;1.63;;
2562;SDS011;1291;51.420;6.970;2022-10-16T18:31:42;3.88;;;1.73;;
2562;SDS011;1291;51.420;6.970;2022-10-16T18:34:07;5.55;;;1.77;;
2562;SDS011;1291;51.420;6.970;2022-10-16T18:36:33;4.78;;;1.85;;
2562;SDS011;1291;51.420;6.970;2022-10-16T18:39:00;2.83;;;1.92;;
2562;SDS011;1291;51.420;6.970;2022-10-16T18:41:28;2.47;;;2.08;;
2562;SDS011;1291;51.420;6.970;2022-10-16T18:43:54;3.47;;;2.00;;
2562;SDS011;1291;51.420;6.970;2022-10-16T18:46:23;5.07;;;1.90;;
2562;SDS011;1291;51.420;6.970;2022-10-16T18:48:50;3.55;;;2.17;;
2562;SDS011;1291;51.420;6.970;2022-10-16T18:51:22;3.28;;;2.28;;
2562;SDS011;1291;51.420;6.970;2022-10-16T18:53:53;5.10;;;2.05;;
2562;SDS011;1291;51.420;6.970;2022-10-16T18:56:20;3.53;;;1.80;;
2562;SDS011;1291;51.420;6.970;2022-10-16T18:58:47;5.18;;;2.22;;
2562;SDS011;1291;51.420;6.970;2022-10-16T19:01:15;2.22;;;1.70;;
2562;SDS011;1291;51.420;6.970;2022-10-16T19:03:44;2.58;;;1.60;;
2562;SDS011;1291;51.420;6.970;2022-10-16T19:06:12;2.22;;;1.63;;
2562;SDS011;1291;51.420;6.970;2022-10-16T19:08:38;11.02;;;1.92;;
2562;SDS011;1291;51.420;6.970;2022-10-16T19:11:05;4.53;;;2.05;;
2562;SDS011;1291;51.420;6.970;2022-10-16T19:13:36;2.40;;;1.50;;
2562;SDS011;1291;51.420;6.970;2022-10-16T19:16:02;3.45;;;1.85;;
2562;SDS011;1291;51.420;6.970;2022-10-16T19:18:28;1.90;;;1.80;;
2562;SDS011;1291;51.420;6.970;2022-10-16T19:21:15;5.75;;;2.25;;
2562;SDS011;1291;51.420;6.970;2022-10-16T19:23:41;4.20;;;1.60;;
2562;SDS011;1291;51.420;6.970;2022-10-16T19:26:08;3.00;;;1.70;;
2562;SDS011;1291;51.420;6.970;2022-10-16T19:28:35;1.90;;;1.58;;
2562;SDS011;1291;51.420;6.970;2022-10-16T19:31:05;1.95;;;1.60;;
2562;SDS011;1291;51.420;6.970;2022-10-16T19:33:34;4.45;;;1.98;;
2562;SDS011;1291;51.420;6.970;2022-10-16T19:36:33;8.38;;;3.65;;
2562;SDS011;1291;51.420;6.970;2022-10-16T19:38:56;2.60;;;1.70;;
2562;SDS011;1291;51.420;6.970;2022-10-16T19:41:23;2.13;;;1.92;;
2562;SDS011;1291;51.420;6.970;2022-10-16T19:43:50;3.35;;;1.70;;
2562;SDS011;1291;51.420;6.970;2022-10-16T19:46:17;2.47;;;1.80;;
2562;SDS011;1291;51.420;6.970;2022-10-16T19:48:45;1.77;;;1.65;;
2562;SDS011;1291;51.420;6.970;2022-10-16T19:51:13;2.60;;;1.85;;
2562;SDS011;1291;51.420;6.970;2022-10-16T19:53:40;2.80;;;2.15;;
2562;SDS011;1291;51.420;6.970;2022-10-16T19:56:17;2.97;;;1.60;;
2562;SDS011;1291;51.420;6.970;2022-10-16T19:58:47;6.05;;;1.70;;
2562;SDS011;1291;51.420;6.970;2022-10-16T20:01:13;2.85;;;1.40;;
2562;SDS011;1291;51.420;6.970;2022-10-16T20:03:43;1.88;;;1.73;;
2562;SDS011;1291;51.420;6.970;2022-10-16T20:06:10;2.30;;;2.00;;
2562;SDS011;1291;51.420;6.970;2022-10-16T20:08:37;4.97;;;1.70;;
2562;SDS011;1291;51.420;6.970;2022-10-16T20:11:04;2.28;;;2.08;;
2562;SDS011;1291;51.420;6.970;2022-10-16T20:13:30;2.85;;;1.80;;
2562;SDS011;1291;51.420;6.970;2022-10-16T20:15:56;1.70;;;1.58;;
2562;SDS011;1291;51.420;6.970;2022-10-16T20:18:22;2.97;;;2.05;;
2562;SDS011;1291;51.420;6.970;2022-10-16T20:20:48;1.90;;;1.70;;
2562;SDS011;1291;51.420;6.970;2022-10-16T20:23:15;2.15;;;1.90;;
2562;SDS011;1291;51.420;6.970;2022-10-16T20:25:42;2.15;;;1.95;;
2562;SDS011;1291;51.420;6.970;2022-10-16T20:28:10;2.25;;;2.05;;
2562;SDS011;1291;51.420;6.970;2022-10-16T20:30:38;3.45;;;2.45;;
2562;SDS011;1291;51.420;6.970;2022-10-16T20:33:07;2.40;;;2.20;;
2562;SDS011;1291;51.420;6.970;2022-10-16T20:35:39;2.65;;;2.38;;
2562;SDS011;1291;51.420;6.970;2022-10-16T20:38:06;2.50;;;2.30;;
2562;SDS011;1291;51.420;6.970;2022-10-16T20:40:33;4.15;;;2.65;;
